createdAt,value
2022-08-25T00:00:14.594Z,23.81
2022-08-25T00:01:14.785Z,23.80
2022-08-25T00:02:14.965Z,23.81
2022-08-25T00:03:15.104Z,23.81
2022-08-25T00:04:15.283Z,23.81
2022-08-25T00:05:15.515Z,23.83
2022-08-25T00:06:15.675Z,23.83
2022-08-25T00:07:18.620Z,23.83
2022-08-25T00:08:15.955Z,23.81
2022-08-25T00:09:16.115Z,23.78
2022-08-25T00:10:16.314Z,23.80
2022-08-25T00:11:16.486Z,23.78
2022-08-25T00:12:16.645Z,23.77
2022-08-25T00:13:16.808Z,23.76
2022-08-25T00:14:16.965Z,23.74
2022-08-25T00:15:17.126Z,23.71
2022-08-25T00:16:17.379Z,23.73
2022-08-25T00:17:17.485Z,23.69
2022-08-25T00:18:19.930Z,23.68
2022-08-25T00:19:17.863Z,23.68
2022-08-25T00:20:18.056Z,23.62
2022-08-25T00:21:18.226Z,23.62
2022-08-25T00:22:18.376Z,23.65
2022-08-25T00:23:18.566Z,23.65
2022-08-25T00:24:19.843Z,23.63
2022-08-25T00:25:18.944Z,23.63
2022-08-25T00:26:19.156Z,23.63
2022-08-25T00:27:19.314Z,23.62
2022-08-25T00:28:19.508Z,23.62
2022-08-25T00:29:19.678Z,23.61
2022-08-25T00:30:19.846Z,23.62
2022-08-25T00:31:20.053Z,23.61
2022-08-25T00:32:20.187Z,23.61
2022-08-25T00:33:20.339Z,23.59
2022-08-25T00:34:20.538Z,23.58
2022-08-25T00:35:20.710Z,23.56
2022-08-25T00:36:20.867Z,23.56
2022-08-25T00:37:21.018Z,23.56
2022-08-25T00:38:21.218Z,23.54
2022-08-25T00:39:21.368Z,23.54
2022-08-25T00:40:21.651Z,23.54
2022-08-25T00:41:21.748Z,23.50
2022-08-25T00:42:21.949Z,23.48
2022-08-25T00:43:22.108Z,23.47
2022-08-25T00:44:22.297Z,23.46
2022-08-25T00:45:22.478Z,23.47
2022-08-25T00:46:22.691Z,23.44
2022-08-25T00:47:22.817Z,23.43
2022-08-25T00:48:22.971Z,23.41
2022-08-25T00:49:25.301Z,23.43
2022-08-25T00:50:23.360Z,23.40
2022-08-25T00:51:23.529Z,23.39
2022-08-25T00:52:23.681Z,23.39
2022-08-25T00:53:23.880Z,23.37
2022-08-25T00:54:24.051Z,23.34
2022-08-25T00:55:24.244Z,23.34
2022-08-25T00:56:24.420Z,23.32
2022-08-25T00:57:34.593Z,23.31
2022-08-25T00:58:25.743Z,23.27
2022-08-25T00:59:24.927Z,23.31
2022-08-25T01:00:25.090Z,23.31
2022-08-25T01:01:25.311Z,23.27
2022-08-25T01:02:25.504Z,23.28
2022-08-25T01:03:32.908Z,23.25
2022-08-25T01:04:26.779Z,23.25
2022-08-25T01:05:25.982Z,23.27
2022-08-25T01:06:26.155Z,23.27
2022-08-25T01:07:26.321Z,23.24
2022-08-25T01:08:26.470Z,23.25
2022-08-25T01:09:26.640Z,23.23
2022-08-25T01:10:26.821Z,23.23
2022-08-25T01:11:26.987Z,23.21
2022-08-25T01:12:27.154Z,23.21
2022-08-25T01:13:27.302Z,23.21
2022-08-25T01:14:27.471Z,23.21
2022-08-25T01:15:27.689Z,23.21
2022-08-25T01:16:27.811Z,23.21
2022-08-25T01:17:27.972Z,23.20
2022-08-25T01:18:28.153Z,23.18
2022-08-25T01:19:28.331Z,23.17
2022-08-25T01:20:29.345Z,23.17
2022-08-25T01:21:28.682Z,23.17
2022-08-25T01:22:28.842Z,23.17
2022-08-25T01:23:29.033Z,23.17
2022-08-25T01:24:29.220Z,23.13
2022-08-25T01:25:29.396Z,23.13
2022-08-25T01:26:30.630Z,23.10
2022-08-25T01:27:29.742Z,23.09
2022-08-25T01:28:29.905Z,23.06
2022-08-25T01:29:30.110Z,23.08
2022-08-25T01:30:30.274Z,23.06
2022-08-25T01:31:30.445Z,23.08
2022-08-25T01:32:30.601Z,23.05
2022-08-25T01:33:30.789Z,23.05
2022-08-25T01:34:30.977Z,23.03
2022-08-25T01:35:31.120Z,23.02
2022-08-25T01:36:31.272Z,23.03
2022-08-25T01:37:31.434Z,23.02
2022-08-25T01:38:31.597Z,23.02
2022-08-25T01:39:31.805Z,23.03
2022-08-25T01:40:32.021Z,23.02
2022-08-25T01:41:32.132Z,22.99
2022-08-25T01:42:32.283Z,23.00
2022-08-25T01:43:32.492Z,22.99
2022-08-25T01:44:32.655Z,22.98
2022-08-25T01:45:32.823Z,22.98
2022-08-25T01:46:33.050Z,22.98
2022-08-25T01:47:33.187Z,22.98
2022-08-25T01:48:33.333Z,22.99
2022-08-25T01:49:33.543Z,22.96
2022-08-25T01:50:33.703Z,22.96
2022-08-25T01:51:33.904Z,22.98
2022-08-25T01:52:34.074Z,22.94
2022-08-25T01:53:34.284Z,22.96
2022-08-25T01:54:34.434Z,22.94
2022-08-25T01:55:34.599Z,22.94
2022-08-25T01:56:34.756Z,22.94
2022-08-25T01:57:34.953Z,22.94
2022-08-25T01:58:35.132Z,22.91
2022-08-25T01:59:35.293Z,22.90
2022-08-25T02:00:35.454Z,22.90
2022-08-25T02:01:35.671Z,22.90
2022-08-25T02:02:35.819Z,22.88
2022-08-25T02:03:35.996Z,22.87
2022-08-25T02:04:36.146Z,22.87
2022-08-25T02:05:36.335Z,22.88
2022-08-25T02:06:36.515Z,22.85
2022-08-25T02:07:36.695Z,22.85
2022-08-25T02:08:36.885Z,22.84
2022-08-25T02:09:37.055Z,22.83
2022-08-25T02:10:37.235Z,22.81
2022-08-25T02:11:37.396Z,22.78
2022-08-25T02:12:37.557Z,22.80
2022-08-25T02:13:37.737Z,22.76
2022-08-25T02:14:37.927Z,22.78
2022-08-25T02:15:38.068Z,22.78
2022-08-25T02:16:38.332Z,22.80
2022-08-25T02:17:38.420Z,22.80
2022-08-25T02:18:38.586Z,22.73
2022-08-25T02:19:38.756Z,22.76
2022-08-25T02:20:38.907Z,22.75
2022-08-25T02:21:39.106Z,22.72
2022-08-25T02:22:39.266Z,22.70
2022-08-25T02:23:39.444Z,22.68
2022-08-25T02:24:39.610Z,22.65
2022-08-25T02:25:39.807Z,22.63
2022-08-25T02:26:39.968Z,22.63
2022-08-25T02:27:40.158Z,22.63
2022-08-25T02:28:40.327Z,22.65
2022-08-25T02:29:40.508Z,22.68
2022-08-25T02:30:40.715Z,22.68
2022-08-25T02:31:40.828Z,22.66
2022-08-25T02:32:40.992Z,22.65
2022-08-25T02:33:41.158Z,22.63
2022-08-25T02:34:41.319Z,22.65
2022-08-25T02:35:41.478Z,22.68
2022-08-25T02:36:41.648Z,22.68
2022-08-25T02:37:41.809Z,22.65
2022-08-25T02:38:41.985Z,22.66
2022-08-25T02:39:42.157Z,22.66
2022-08-25T02:40:42.308Z,22.65
2022-08-25T02:41:42.502Z,22.63
2022-08-25T02:42:42.827Z,22.63
2022-08-25T02:43:42.859Z,22.63
2022-08-25T02:44:43.019Z,22.60
2022-08-25T02:45:43.218Z,22.57
2022-08-25T02:46:43.349Z,22.59
2022-08-25T02:47:43.511Z,22.55
2022-08-25T02:48:43.702Z,22.57
2022-08-25T02:49:43.860Z,22.54
2022-08-25T02:50:44.211Z,22.53
2022-08-25T02:51:44.419Z,22.53
2022-08-25T02:52:44.368Z,22.51
2022-08-25T02:53:44.570Z,22.51
2022-08-25T02:54:44.753Z,22.47
2022-08-25T02:55:44.914Z,22.48
2022-08-25T02:56:45.069Z,22.48
2022-08-25T02:57:45.269Z,22.48
2022-08-25T02:58:45.449Z,22.48
2022-08-25T02:59:45.627Z,22.48
2022-08-25T03:00:45.814Z,22.47
2022-08-25T03:01:45.951Z,22.47
2022-08-25T03:02:46.140Z,22.48
2022-08-25T03:03:46.320Z,22.48
2022-08-25T03:04:46.494Z,22.45
2022-08-25T03:05:46.590Z,22.44
2022-08-25T03:06:46.761Z,22.44
2022-08-25T03:07:46.926Z,22.44
2022-08-25T03:08:47.113Z,22.45
2022-08-25T03:09:47.264Z,22.45
2022-08-25T03:10:47.473Z,22.45
2022-08-25T03:11:47.619Z,22.47
2022-08-25T03:12:47.780Z,22.44
2022-08-25T03:13:47.962Z,22.43
2022-08-25T03:14:48.122Z,22.41
2022-08-25T03:15:49.334Z,22.43
2022-08-25T03:16:48.532Z,22.43
2022-08-25T03:17:48.632Z,22.44
2022-08-25T03:18:48.833Z,22.44
2022-08-25T03:19:48.981Z,22.44
2022-08-25T03:20:49.141Z,22.43
2022-08-25T03:21:49.332Z,22.43
2022-08-25T03:22:49.501Z,22.39
2022-08-25T03:23:49.673Z,22.39
2022-08-25T03:24:49.851Z,22.35
2022-08-25T03:25:50.003Z,22.38
2022-08-25T03:26:50.192Z,22.36
2022-08-25T03:27:50.394Z,22.35
2022-08-25T03:28:50.573Z,22.35
2022-08-25T03:29:50.731Z,22.32
2022-08-25T03:30:53.367Z,22.33
2022-08-25T03:31:52.135Z,22.30
2022-08-25T03:32:51.251Z,22.29
2022-08-25T03:33:51.475Z,22.29
2022-08-25T03:34:51.642Z,22.29
2022-08-25T03:35:51.803Z,22.26
2022-08-25T03:36:51.963Z,22.28
2022-08-25T03:37:52.163Z,22.26
2022-08-25T03:38:52.339Z,22.25
2022-08-25T03:39:52.533Z,22.25
2022-08-25T03:40:52.643Z,22.26
2022-08-25T03:41:52.835Z,22.28
2022-08-25T03:42:53.003Z,22.26
2022-08-25T03:43:53.224Z,22.25
2022-08-25T03:44:53.344Z,22.26
2022-08-25T03:45:53.600Z,22.23
2022-08-25T03:46:53.700Z,22.22
2022-08-25T03:47:53.882Z,22.22
2022-08-25T03:48:54.073Z,22.20
2022-08-25T03:49:54.244Z,22.18
2022-08-25T03:50:54.442Z,22.18
2022-08-25T03:51:54.602Z,22.22
2022-08-25T03:52:54.774Z,22.18
2022-08-25T03:53:54.982Z,22.17
2022-08-25T03:54:55.134Z,22.15
2022-08-25T03:55:55.339Z,22.14
2022-08-25T03:56:55.517Z,22.17
2022-08-25T03:57:55.666Z,22.17
2022-08-25T03:58:55.872Z,22.17
2022-08-25T03:59:56.035Z,22.17
2022-08-25T04:00:56.280Z,22.15
2022-08-25T04:01:56.403Z,22.15
2022-08-25T04:02:56.537Z,22.15
2022-08-25T04:03:56.705Z,22.15
2022-08-25T04:04:56.855Z,22.13
2022-08-25T04:05:57.011Z,22.11
2022-08-25T04:06:57.205Z,22.14
2022-08-25T04:07:57.355Z,22.14
2022-08-25T04:08:57.578Z,22.13
2022-08-25T04:09:57.739Z,22.13
2022-08-25T04:10:57.926Z,22.14
2022-08-25T04:11:58.115Z,22.10
2022-08-25T04:12:58.295Z,22.11
2022-08-25T04:13:58.495Z,22.10
2022-08-25T04:14:58.638Z,22.10
2022-08-25T04:15:58.798Z,22.13
2022-08-25T04:16:59.047Z,22.14
2022-08-25T04:17:59.303Z,22.13
2022-08-25T04:18:59.474Z,22.13
2022-08-25T04:19:59.487Z,22.14
2022-08-25T04:20:59.677Z,22.14
2022-08-25T04:21:59.868Z,22.14
2022-08-25T04:23:00.061Z,22.15
2022-08-25T04:24:00.299Z,22.14
2022-08-25T04:25:00.396Z,22.14
2022-08-25T04:26:00.587Z,22.14
2022-08-25T04:27:00.767Z,22.11
2022-08-25T04:28:01.029Z,22.13
2022-08-25T04:29:01.128Z,22.13
2022-08-25T04:30:01.329Z,22.17
2022-08-25T04:31:01.475Z,22.18
2022-08-25T04:32:01.740Z,22.17
2022-08-25T04:33:01.828Z,22.20
2022-08-25T04:34:02.019Z,22.20
2022-08-25T04:35:02.179Z,22.25
2022-08-25T04:36:02.338Z,22.25
2022-08-25T04:37:02.508Z,22.30
2022-08-25T04:38:02.712Z,22.33
2022-08-25T04:39:02.863Z,22.33
2022-08-25T04:40:03.040Z,22.36
2022-08-25T04:41:03.199Z,22.39
2022-08-25T04:42:03.397Z,22.39
2022-08-25T04:43:03.568Z,22.39
2022-08-25T04:44:03.776Z,22.44
2022-08-25T04:45:03.922Z,22.47
2022-08-25T04:46:04.141Z,22.50
2022-08-25T04:47:04.220Z,22.59
2022-08-25T04:48:04.501Z,22.62
2022-08-25T04:49:04.579Z,22.66
2022-08-25T04:50:04.743Z,22.70
2022-08-25T04:51:04.897Z,22.72
2022-08-25T04:52:05.086Z,22.78
2022-08-25T04:53:06.229Z,22.84
2022-08-25T04:54:05.420Z,22.88
2022-08-25T04:55:05.569Z,22.94
2022-08-25T04:56:05.750Z,22.99
2022-08-25T04:57:05.941Z,23.05
2022-08-25T04:58:06.193Z,23.10
2022-08-25T04:59:07.300Z,23.13
2022-08-25T05:00:06.461Z,23.18
2022-08-25T05:01:06.685Z,23.21
2022-08-25T05:02:06.860Z,23.28
2022-08-25T05:03:07.009Z,23.28
2022-08-25T05:04:07.293Z,23.34
2022-08-25T05:05:07.370Z,23.39
2022-08-25T05:06:07.550Z,23.46
2022-08-25T05:07:07.731Z,23.50
2022-08-25T05:08:07.892Z,23.58
2022-08-25T05:09:08.100Z,23.61
2022-08-25T05:10:08.251Z,23.61
2022-08-25T05:11:08.431Z,23.66
2022-08-25T05:12:08.611Z,23.71
2022-08-25T05:13:08.782Z,23.76
2022-08-25T05:14:08.973Z,23.77
2022-08-25T05:15:09.121Z,23.80
2022-08-25T05:16:09.896Z,23.84
2022-08-25T05:17:09.470Z,23.92
2022-08-25T05:18:09.674Z,23.96
2022-08-25T05:19:09.821Z,24.06
2022-08-25T05:20:09.985Z,24.16
2022-08-25T05:21:10.153Z,24.24
2022-08-25T05:22:10.332Z,24.30
2022-08-25T05:23:10.513Z,24.32
2022-08-25T05:24:10.712Z,24.35
2022-08-25T05:25:10.853Z,24.42
2022-08-25T05:26:11.042Z,24.43
2022-08-25T05:27:11.233Z,24.39
2022-08-25T05:28:11.411Z,24.36
2022-08-25T05:29:11.610Z,24.39
2022-08-25T05:30:11.743Z,24.36
2022-08-25T05:31:11.999Z,24.38
2022-08-25T05:32:12.107Z,24.40
2022-08-25T05:33:12.252Z,24.42
2022-08-25T05:34:12.471Z,24.53
2022-08-25T05:35:12.605Z,24.55
2022-08-25T05:36:12.774Z,24.66
2022-08-25T05:37:12.961Z,24.73
2022-08-25T05:38:15.283Z,24.78
2022-08-25T05:39:13.314Z,24.84
2022-08-25T05:40:13.482Z,24.85
2022-08-25T05:41:13.635Z,24.85
2022-08-25T05:42:13.813Z,24.92
2022-08-25T05:43:13.993Z,24.96
2022-08-25T05:44:17.908Z,25.06
2022-08-25T05:45:16.701Z,25.08
2022-08-25T05:46:15.570Z,25.13
2022-08-25T05:47:14.683Z,25.17
2022-08-25T05:48:14.865Z,25.17
2022-08-25T05:49:15.056Z,25.22
2022-08-25T05:50:15.201Z,25.08
2022-08-25T05:51:15.406Z,25.06
2022-08-25T05:52:20.040Z,25.06
2022-08-25T05:53:15.717Z,25.06
2022-08-25T05:54:15.886Z,25.06
2022-08-25T05:55:16.044Z,25.10
2022-08-25T05:56:16.236Z,25.11
2022-08-25T05:57:16.399Z,25.14
2022-08-25T05:58:16.604Z,25.18
2022-08-25T05:59:16.748Z,25.10
2022-08-25T06:00:16.898Z,25.08
2022-08-25T06:01:17.173Z,25.04
2022-08-25T06:02:17.317Z,25.06
2022-08-25T06:03:17.490Z,24.98
2022-08-25T06:04:17.643Z,24.95
2022-08-25T06:05:17.797Z,24.95
2022-08-25T06:06:17.959Z,24.98
2022-08-25T06:07:18.127Z,24.96
2022-08-25T06:08:18.301Z,24.93
2022-08-25T06:09:18.507Z,24.91
2022-08-25T06:10:18.658Z,24.92
2022-08-25T06:11:18.819Z,24.93
2022-08-25T06:12:18.980Z,24.96
2022-08-25T06:13:19.171Z,25.03
2022-08-25T06:14:20.350Z,25.10
2022-08-25T06:15:19.519Z,25.13
2022-08-25T06:16:19.748Z,25.14
2022-08-25T06:17:19.880Z,25.18
2022-08-25T06:18:20.042Z,25.25
2022-08-25T06:19:20.219Z,25.29
2022-08-25T06:20:20.369Z,25.32
2022-08-25T06:21:21.546Z,25.35
2022-08-25T06:22:20.700Z,25.32
2022-08-25T06:23:20.911Z,25.33
2022-08-25T06:24:21.071Z,25.29
2022-08-25T06:25:21.230Z,25.26
2022-08-25T06:26:21.690Z,25.21
2022-08-25T06:27:21.561Z,25.23
2022-08-25T06:28:21.734Z,25.22
2022-08-25T06:29:21.894Z,25.18
2022-08-25T06:30:28.656Z,25.14
2022-08-25T06:31:23.283Z,25.08
2022-08-25T06:32:22.399Z,25.01
2022-08-25T06:33:22.602Z,24.98
2022-08-25T06:34:24.165Z,24.98
2022-08-25T06:35:22.937Z,24.99
2022-08-25T06:36:23.090Z,25.06
2022-08-25T06:37:25.170Z,25.01
2022-08-25T06:38:23.472Z,25.01
2022-08-25T06:39:23.622Z,25.07
2022-08-25T06:40:23.816Z,25.11
2022-08-25T06:41:23.963Z,25.16
2022-08-25T06:42:25.141Z,25.18
2022-08-25T06:43:24.322Z,25.17
2022-08-25T06:44:24.503Z,25.21
2022-08-25T06:45:24.653Z,25.25
2022-08-25T06:46:34.726Z,25.31
2022-08-25T06:47:26.024Z,25.33
2022-08-25T06:48:25.166Z,25.43
2022-08-25T06:49:25.314Z,25.48
2022-08-25T06:50:25.510Z,25.55
2022-08-25T06:51:25.756Z,25.60
2022-08-25T06:52:27.929Z,25.60
2022-08-25T06:53:26.003Z,25.55
2022-08-25T06:54:26.147Z,25.59
2022-08-25T06:55:26.314Z,25.60
2022-08-25T06:56:26.686Z,25.66
2022-08-25T06:57:26.684Z,25.73
2022-08-25T06:58:26.819Z,25.73
2022-08-25T06:59:32.169Z,25.73
2022-08-25T07:00:30.681Z,25.75
2022-08-25T07:01:27.487Z,25.77
2022-08-25T07:02:27.532Z,25.81
2022-08-25T07:03:27.709Z,25.81
2022-08-25T07:04:27.836Z,25.77
2022-08-25T07:05:42.604Z,25.80
2022-08-25T07:06:29.195Z,25.87
2022-08-25T07:07:32.758Z,25.93
2022-08-25T07:08:29.546Z,25.99
2022-08-25T07:09:28.716Z,26.00
2022-08-25T07:10:28.878Z,26.07
2022-08-25T07:11:29.096Z,26.16
2022-08-25T07:12:29.248Z,26.22
2022-08-25T07:13:29.456Z,26.33
2022-08-25T07:14:29.597Z,26.29
2022-08-25T07:15:29.807Z,26.28
2022-08-25T07:16:31.074Z,26.33
2022-08-25T07:17:30.127Z,26.40
2022-08-25T07:18:30.317Z,26.53
2022-08-25T07:19:30.489Z,26.62
2022-08-25T07:20:30.659Z,26.66
2022-08-25T07:21:33.428Z,26.70
2022-08-25T07:22:31.028Z,26.68
2022-08-25T07:23:31.219Z,26.74
2022-08-25T07:24:31.388Z,26.81
2022-08-25T07:25:31.579Z,26.92
2022-08-25T07:26:37.841Z,27.00
2022-08-25T07:27:32.958Z,27.12
2022-08-25T07:28:32.141Z,27.25
2022-08-25T07:29:33.251Z,27.35
2022-08-25T07:30:32.461Z,27.40
2022-08-25T07:31:32.675Z,27.58
2022-08-25T07:32:32.868Z,27.67
2022-08-25T07:33:32.978Z,27.82
2022-08-25T07:34:33.179Z,28.00
2022-08-25T07:35:37.470Z,28.22
2022-08-25T07:36:33.486Z,28.52
2022-08-25T07:37:47.512Z,28.82
2022-08-25T07:38:34.852Z,29.02
2022-08-25T07:39:34.009Z,29.32
2022-08-25T07:40:34.318Z,29.51
2022-08-25T07:41:34.384Z,29.78
2022-08-25T07:42:34.589Z,29.91
2022-08-25T07:43:34.731Z,29.93
2022-08-25T07:44:34.882Z,30.08
2022-08-25T07:45:35.071Z,30.30
2022-08-25T07:46:35.299Z,30.55
2022-08-25T07:47:35.454Z,30.81
2022-08-25T07:48:35.616Z,31.12
2022-08-25T07:49:39.768Z,31.36
2022-08-25T07:50:35.962Z,31.43
2022-08-25T07:51:36.124Z,31.37
2022-08-25T07:52:36.304Z,31.65
2022-08-25T07:53:36.493Z,32.04
2022-08-25T07:54:37.890Z,32.27
2022-08-25T07:55:36.856Z,32.48
2022-08-25T07:56:37.024Z,32.71
2022-08-25T07:57:37.215Z,32.86
2022-08-25T07:58:37.415Z,33.01
2022-08-25T07:59:40.097Z,33.07
2022-08-25T08:00:37.737Z,33.01
2022-08-25T08:01:38.681Z,32.85
2022-08-25T08:02:38.134Z,32.52
2022-08-25T08:03:50.680Z,32.40
2022-08-25T08:04:39.437Z,32.73
2022-08-25T08:05:38.618Z,33.04
2022-08-25T08:06:38.786Z,33.04
2022-08-25T08:07:43.100Z,33.00
2022-08-25T08:08:39.147Z,32.82
2022-08-25T08:09:39.288Z,32.60
2022-08-25T08:11:02.790Z,32.34
2022-08-25T08:11:45.114Z,32.22
2022-08-25T08:12:40.807Z,32.19
2022-08-25T08:13:41.536Z,32.18
2022-08-25T08:14:45.018Z,32.11
2022-08-25T08:15:41.404Z,31.96
2022-08-25T08:16:40.549Z,31.74
2022-08-25T08:17:40.705Z,31.55
2022-08-25T08:18:40.890Z,31.37
2022-08-25T08:19:44.825Z,31.15
2022-08-25T08:20:42.957Z,30.91
2022-08-25T08:21:41.391Z,30.80
2022-08-25T08:22:41.583Z,30.66
2022-08-25T08:23:41.760Z,30.46
2022-08-25T08:24:44.629Z,30.34
2022-08-25T08:25:43.088Z,30.27
2022-08-25T08:26:58.205Z,30.28
2022-08-25T08:27:43.460Z,30.23
2022-08-25T08:28:42.661Z,30.23
2022-08-25T08:29:42.838Z,30.18
2022-08-25T08:30:53.442Z,30.00
2022-08-25T08:31:48.576Z,29.93
2022-08-25T08:33:06.191Z,29.84
2022-08-25T08:33:44.526Z,29.76
2022-08-25T08:34:43.682Z,29.72
2022-08-25T08:35:43.863Z,29.69
2022-08-25T08:36:45.232Z,29.65
2022-08-25T08:37:44.222Z,29.65
2022-08-25T08:38:44.377Z,29.71
2022-08-25T08:39:44.564Z,29.81
2022-08-25T08:40:44.733Z,29.93
2022-08-25T08:42:46.843Z,30.05
2022-08-25T08:43:45.255Z,30.05
2022-08-25T08:44:45.480Z,30.06
2022-08-25T08:45:45.599Z,30.00
2022-08-25T08:46:45.800Z,29.98
2022-08-25T08:47:45.944Z,30.06
2022-08-25T08:48:46.136Z,30.15
2022-08-25T08:49:46.305Z,30.25
2022-08-25T08:50:46.468Z,30.19
2022-08-25T08:51:46.673Z,29.97
2022-08-25T08:52:46.798Z,29.79
2022-08-25T08:53:46.999Z,29.68
2022-08-25T08:54:47.145Z,29.56
2022-08-25T08:55:52.318Z,29.56
2022-08-25T08:56:48.604Z,29.54
2022-08-25T08:58:50.001Z,29.57
2022-08-25T08:59:48.818Z,29.53
2022-08-25T09:00:52.067Z,29.57
2022-08-25T09:01:52.625Z,29.71
2022-08-25T09:02:51.596Z,29.87
2022-08-25T09:03:55.010Z,30.73
2022-08-25T09:04:49.906Z,31.70
2022-08-25T09:05:49.077Z,32.08
2022-08-25T09:06:49.247Z,32.27
2022-08-25T09:07:49.437Z,32.71
2022-08-25T09:08:50.648Z,32.92
2022-08-25T09:09:52.175Z,32.68
2022-08-25T09:10:49.989Z,32.23
2022-08-25T09:11:50.139Z,31.84
2022-08-25T09:12:50.354Z,31.55
2022-08-25T09:13:50.508Z,31.37
2022-08-25T09:14:53.801Z,31.66
2022-08-25T09:15:50.887Z,31.80
2022-08-25T09:16:51.014Z,32.15
2022-08-25T09:18:08.528Z,32.87
2022-08-25T09:18:52.484Z,33.84
2022-08-25T09:19:51.510Z,34.77
2022-08-25T09:20:51.691Z,35.73
2022-08-25T09:21:51.892Z,36.43
2022-08-25T09:22:52.051Z,36.89
2022-08-25T09:23:52.256Z,37.21
2022-08-25T09:24:52.443Z,37.47
2022-08-25T09:25:54.007Z,37.36
2022-08-25T09:26:52.795Z,37.55
2022-08-25T09:27:52.973Z,37.78
2022-08-25T09:28:53.174Z,37.48
2022-08-25T09:29:53.323Z,37.32
2022-08-25T09:30:53.567Z,37.83
2022-08-25T09:31:53.664Z,38.19
2022-08-25T09:32:53.859Z,37.93
2022-08-25T09:33:54.025Z,37.17
2022-08-25T09:34:54.194Z,36.39
2022-08-25T09:35:54.354Z,36.07
2022-08-25T09:36:54.555Z,35.61
2022-08-25T09:37:54.718Z,35.17
2022-08-25T09:38:54.918Z,34.95
2022-08-25T09:39:55.130Z,34.92
2022-08-25T09:40:55.268Z,34.70
2022-08-25T09:41:55.447Z,34.52
2022-08-25T09:42:58.098Z,34.61
2022-08-25T09:43:55.841Z,34.83
2022-08-25T09:44:55.976Z,35.04
2022-08-25T09:45:56.167Z,35.78
2022-08-25T09:46:56.329Z,36.54
2022-08-25T09:47:56.510Z,36.73
2022-08-25T09:48:57.579Z,36.20
2022-08-25T09:49:56.829Z,35.51
2022-08-25T09:50:57.018Z,34.83
2022-08-25T09:51:57.188Z,34.14
2022-08-25T09:52:57.346Z,33.55
2022-08-25T09:53:57.531Z,33.05
2022-08-25T09:54:57.693Z,32.70
2022-08-25T09:56:00.263Z,32.41
2022-08-25T09:56:58.037Z,32.23
2022-08-25T09:57:58.189Z,32.03
2022-08-25T09:59:02.766Z,31.92
2022-08-25T09:59:58.541Z,31.80
2022-08-25T10:00:58.725Z,31.66
2022-08-25T10:01:58.953Z,31.47
2022-08-25T10:02:59.052Z,31.33
2022-08-25T10:04:00.313Z,31.31
2022-08-25T10:04:59.409Z,31.70
2022-08-25T10:05:59.568Z,32.18
2022-08-25T10:06:59.703Z,32.45
2022-08-25T10:07:59.874Z,32.75
2022-08-25T10:09:00.100Z,33.11
2022-08-25T10:10:00.242Z,33.47
2022-08-25T10:11:00.434Z,33.69
2022-08-25T10:12:00.675Z,33.79
2022-08-25T10:13:00.945Z,33.69
2022-08-25T10:14:01.040Z,33.71
2022-08-25T10:15:01.126Z,33.64
2022-08-25T10:16:01.372Z,33.47
2022-08-25T10:17:01.456Z,33.32
2022-08-25T10:18:01.615Z,33.23
2022-08-25T10:19:01.836Z,33.14
2022-08-25T10:20:01.966Z,32.97
2022-08-25T10:21:02.127Z,32.71
2022-08-25T10:22:02.351Z,32.59
2022-08-25T10:23:02.630Z,32.56
2022-08-25T10:24:02.670Z,32.60
2022-08-25T10:25:04.609Z,32.73
2022-08-25T10:26:04.397Z,32.85
2022-08-25T10:27:03.188Z,32.87
2022-08-25T10:28:03.361Z,32.83
2022-08-25T10:29:03.536Z,32.73
2022-08-25T10:30:03.707Z,32.60
2022-08-25T10:31:03.962Z,32.55
2022-08-25T10:32:04.057Z,32.45
2022-08-25T10:33:04.313Z,32.36
2022-08-25T10:34:04.438Z,32.29
2022-08-25T10:35:04.609Z,32.15
2022-08-25T10:36:04.789Z,32.12
2022-08-25T10:37:04.968Z,32.11
2022-08-25T10:38:05.131Z,32.08
2022-08-25T10:39:05.324Z,32.00
2022-08-25T10:40:06.537Z,31.89
2022-08-25T10:41:05.660Z,31.71
2022-08-25T10:42:05.851Z,31.66
2022-08-25T10:43:06.194Z,31.59
2022-08-25T10:44:06.181Z,31.64
2022-08-25T10:45:06.334Z,31.66
2022-08-25T10:46:06.552Z,31.71
2022-08-25T10:47:06.688Z,31.70
2022-08-25T10:48:06.882Z,31.70
2022-08-25T10:49:07.049Z,31.78
2022-08-25T10:50:07.204Z,31.80
2022-08-25T10:51:07.392Z,31.78
2022-08-25T10:52:07.573Z,31.73
2022-08-25T10:53:07.870Z,31.73
2022-08-25T10:54:07.922Z,31.65
2022-08-25T10:55:08.093Z,31.71
2022-08-25T10:56:08.263Z,31.74
2022-08-25T10:57:08.442Z,31.81
2022-08-25T10:58:08.614Z,31.93
2022-08-25T10:59:09.115Z,31.96
2022-08-25T11:00:08.994Z,32.01
2022-08-25T11:01:09.191Z,31.96
2022-08-25T11:02:09.315Z,31.85
2022-08-25T11:03:09.624Z,31.74
2022-08-25T11:04:09.791Z,31.70
2022-08-25T11:05:09.860Z,31.62
2022-08-25T11:06:09.987Z,31.55
2022-08-25T11:07:10.195Z,31.44
2022-08-25T11:08:10.385Z,31.36
2022-08-25T11:09:10.546Z,31.27
2022-08-25T11:10:11.369Z,31.27
2022-08-25T11:11:10.890Z,31.34
2022-08-25T11:12:11.060Z,31.42
2022-08-25T11:13:11.507Z,31.54
2022-08-25T11:14:11.604Z,31.61
2022-08-25T11:15:11.600Z,31.65
2022-08-25T11:16:21.772Z,31.65
2022-08-25T11:17:12.962Z,31.65
2022-08-25T11:18:14.704Z,31.66
2022-08-25T11:19:12.259Z,31.59
2022-08-25T11:20:15.405Z,31.49
2022-08-25T11:21:13.599Z,31.46
2022-08-25T11:22:12.779Z,31.55
2022-08-25T11:23:12.972Z,31.62
2022-08-25T11:24:13.124Z,31.77
2022-08-25T11:25:13.375Z,31.97
2022-08-25T11:26:13.538Z,32.09
2022-08-25T11:27:13.749Z,32.18
2022-08-25T11:28:13.905Z,32.27
2022-08-25T11:29:13.997Z,32.26
2022-08-25T11:30:14.161Z,32.26
2022-08-25T11:31:14.430Z,32.26
2022-08-25T11:32:14.491Z,32.22
2022-08-25T11:33:14.692Z,32.15
2022-08-25T11:34:14.864Z,32.08
2022-08-25T11:35:15.062Z,32.03
2022-08-25T11:36:15.203Z,32.01
2022-08-25T11:37:15.399Z,32.08
2022-08-25T11:38:15.564Z,32.12
2022-08-25T11:39:15.725Z,32.16
2022-08-25T11:40:15.948Z,32.14
2022-08-25T11:41:16.108Z,32.07
2022-08-25T11:42:16.263Z,31.93
2022-08-25T11:43:16.489Z,31.80
2022-08-25T11:44:16.639Z,31.74
2022-08-25T11:45:16.824Z,31.65
2022-08-25T11:46:17.123Z,31.61
2022-08-25T11:47:21.533Z,31.58
2022-08-25T11:48:17.408Z,31.55
2022-08-25T11:49:17.545Z,31.56
2022-08-25T11:50:17.715Z,31.47
2022-08-25T11:51:17.895Z,31.34
2022-08-25T11:52:18.079Z,31.24
2022-08-25T11:53:18.283Z,31.14
2022-08-25T11:54:19.444Z,31.06
2022-08-25T11:55:18.614Z,31.03
2022-08-25T11:56:18.805Z,31.02
2022-08-25T11:57:18.973Z,31.10
2022-08-25T11:58:19.174Z,31.21
2022-08-25T11:59:19.332Z,31.34
2022-08-25T12:00:19.507Z,31.33
2022-08-25T12:01:19.703Z,31.27
2022-08-25T12:02:19.857Z,31.15
2022-08-25T12:03:20.048Z,31.03
2022-08-25T12:04:20.243Z,30.97
2022-08-25T12:05:20.466Z,30.91
2022-08-25T12:06:20.562Z,30.85
2022-08-25T12:07:20.738Z,30.88
2022-08-25T12:08:20.917Z,30.87
2022-08-25T12:09:21.069Z,30.94
2022-08-25T12:10:21.683Z,31.00
2022-08-25T12:11:21.421Z,31.03
2022-08-25T12:12:21.589Z,31.07
2022-08-25T12:13:21.803Z,31.03
2022-08-25T12:14:21.955Z,31.02
2022-08-25T12:15:22.130Z,31.02
2022-08-25T12:16:22.338Z,30.94
2022-08-25T12:17:22.501Z,30.91
2022-08-25T12:18:22.694Z,30.87
2022-08-25T12:19:22.890Z,30.84
2022-08-25T12:20:23.033Z,30.83
2022-08-25T12:21:23.959Z,30.85
2022-08-25T12:22:23.380Z,30.78
2022-08-25T12:23:23.532Z,30.75
2022-08-25T12:24:23.711Z,30.73
2022-08-25T12:25:23.900Z,30.73
2022-08-25T12:26:24.081Z,30.73
2022-08-25T12:27:24.283Z,30.78
2022-08-25T12:28:24.422Z,30.81
2022-08-25T12:29:24.613Z,30.92
2022-08-25T12:30:26.249Z,31.07
2022-08-25T12:31:24.971Z,31.27
2022-08-25T12:32:25.145Z,31.42
2022-08-25T12:33:26.225Z,31.51
2022-08-25T12:34:26.727Z,31.52
2022-08-25T12:35:25.646Z,31.51
2022-08-25T12:36:25.830Z,31.49
2022-08-25T12:37:26.034Z,31.51
2022-08-25T12:38:26.234Z,31.52
2022-08-25T12:39:26.374Z,31.55
2022-08-25T12:40:26.573Z,31.58
2022-08-25T12:41:26.694Z,31.62
2022-08-25T12:42:26.877Z,31.70
2022-08-25T12:43:27.025Z,31.77
2022-08-25T12:44:27.214Z,31.80
2022-08-25T12:45:27.398Z,31.87
2022-08-25T12:46:27.633Z,31.87
2022-08-25T12:47:27.736Z,31.81
2022-08-25T12:48:27.997Z,31.78
2022-08-25T12:49:28.210Z,31.76
2022-08-25T12:50:28.268Z,31.73
2022-08-25T12:51:28.435Z,31.73
2022-08-25T12:52:28.627Z,31.73
2022-08-25T12:53:28.812Z,31.66
2022-08-25T12:54:28.978Z,31.64
2022-08-25T12:55:29.198Z,31.61
2022-08-25T12:56:29.377Z,31.59